Main page
METAR-TAF:

METAR-TAF

Airports :

Oil platform

P11-b, Netherlands

latitude: 52-21-36N, longitude: 3-20-30E, elevation: 24 m

Current weather observation

The report was made 34 minutes ago, at 05:55 UTC
Wind 13 kt from the Southwest
Temperature 16°C
Humidity 72%
Pressure 1017 hPa
Visibility 10 km or more
Few clouds at a height of 1800 ft

METAR: EHPG 170555Z AUTO 23013KT 9999 FEW018 16/11 Q1017 W///H///

Time: 08:29 (06:29 UTC)


TAF: missing

Weather observations and forecasts of more than 4000 airports (METAR and TAF reports).

The available stations are represented by yellow and red dots on the map.

Hover mouse over dot to see the name of the station.

Then click to see weather observations and forecasts.

To change the map : click on the green buttons with a black cross to zoom in, on the green button with a dash to zoom out, or on the green arrows for adjacent maps.


METAR-TAF: